Главная страница
METAR-TAF:

METAR-TAF

Аэропорты :

Бахрейн, Бахрейн

широта: 26-16N, долгота: 050-39E, высота над уровнем моря: 2 м

Текущие метеонаблюдения

Эта сводка был подготовлена 10 минут назад, в 15:30 UTC
Ветер 9 Узел от северно-северо-западный
Температура 36°C
Влажность 45%
Давление 997 hPa
Видимость 10 км и более
Нет облачности ниже 1500 м, и нет кучево-дождевой облачности

METAR: OBBI 191530Z 34009KT CAVOK 36/22 Q0997 NOSIG

Время: 18:40 (15:40 UTC)

Прогноз

Эта сводка был подготовлена 4 часа и 40 минут назад, в 11:00 UTC
Прогноз действительный с 19-го 12 UTC до 20-го 18 UTC
Ветер 16 Узел от северно-северо-западный
Видимость 10 км и более
Нет облачности ниже 1500 м, и нет кучево-дождевой облачности
изменения
С 19-го 14 UTC до 19-го 16 UTC
Ветер 5 Узел от западно-северо-западный
изменения
С 20-го 05 UTC до 20-го 07 UTC
Ветер 15 Узел от северно-северо-западный

TAF: OBBI 191100Z 1912/2018 34016KT CAVOK BECMG 1914/1916 30005KT BECMG 2005/2007 34015KT

Метеонаблюдения и прогнозы для более 4000 аэропортов (сводки METAR и TAF).

Имеющиеся станции представлены на карте желтыми и красными точками.

Чтобы увидеть название станции, наведите на нее мышь.

Затем щелкните, чтобы увидеть метеонаблюдения и метеопрогнозы.

Управление картой: чтобы увеличить масштаб, щелкните зеленые кнопки с черным крестиком; чтобы уменьшить масштаб, щелкните зеленую кнопку с тире; для просмотра соседних карт щелкайте зеленые стрелки.


METAR-TAF: